sensor_id;sensor_type;location;lat;lon;timestamp;P1;durP1;ratioP1;P2;durP2;ratioP2
44989;SDS011;30723;51.206;3.326;2022-12-18T00:00:47;126.70;;;42.58;;
44989;SDS011;30723;51.206;3.326;2022-12-18T00:03:15;113.80;;;39.90;;
44989;SDS011;30723;51.206;3.326;2022-12-18T00:05:48;139.88;;;39.45;;
44989;SDS011;30723;51.206;3.326;2022-12-18T00:08:18;172.57;;;39.30;;
44989;SDS011;30723;51.206;3.326;2022-12-18T00:10:44;163.52;;;39.60;;
44989;SDS011;30723;51.206;3.326;2022-12-18T00:13:10;119.45;;;39.53;;
44989;SDS011;30723;51.206;3.326;2022-12-18T00:15:37;115.72;;;40.10;;
44989;SDS011;30723;51.206;3.326;2022-12-18T00:18:04;104.93;;;35.65;;
44989;SDS011;30723;51.206;3.326;2022-12-18T00:20:30;104.70;;;40.25;;
44989;SDS011;30723;51.206;3.326;2022-12-18T00:23:00;102.40;;;38.57;;
44989;SDS011;30723;51.206;3.326;2022-12-18T00:25:26;112.93;;;37.75;;
44989;SDS011;30723;51.206;3.326;2022-12-18T00:27:52;119.90;;;35.92;;
44989;SDS011;30723;51.206;3.326;2022-12-18T00:30:17;116.40;;;39.80;;
44989;SDS011;30723;51.206;3.326;2022-12-18T00:32:43;125.38;;;38.92;;
44989;SDS011;30723;51.206;3.326;2022-12-18T00:35:09;103.88;;;40.53;;
44989;SDS011;30723;51.206;3.326;2022-12-18T00:37:35;93.10;;;38.55;;
44989;SDS011;30723;51.206;3.326;2022-12-18T00:40:01;109.25;;;41.15;;
44989;SDS011;30723;51.206;3.326;2022-12-18T00:42:27;105.45;;;41.95;;
44989;SDS011;30723;51.206;3.326;2022-12-18T00:45:11;105.50;;;41.40;;
44989;SDS011;30723;51.206;3.326;2022-12-18T00:47:37;103.75;;;41.15;;
44989;SDS011;30723;51.206;3.326;2022-12-18T00:50:03;106.72;;;41.15;;
44989;SDS011;30723;51.206;3.326;2022-12-18T00:52:29;106.03;;;42.95;;
44989;SDS011;30723;51.206;3.326;2022-12-18T00:54:55;98.35;;;42.35;;
44989;SDS011;30723;51.206;3.326;2022-12-18T00:57:21;92.57;;;40.72;;
44989;SDS011;30723;51.206;3.326;2022-12-18T00:59:46;105.93;;;40.63;;
44989;SDS011;30723;51.206;3.326;2022-12-18T01:02:12;109.30;;;42.92;;
44989;SDS011;30723;51.206;3.326;2022-12-18T01:04:38;90.88;;;40.00;;
44989;SDS011;30723;51.206;3.326;2022-12-18T01:07:04;98.40;;;40.85;;
44989;SDS011;30723;51.206;3.326;2022-12-18T01:09:29;90.72;;;39.63;;
44989;SDS011;30723;51.206;3.326;2022-12-18T01:11:55;97.05;;;39.90;;
44989;SDS011;30723;51.206;3.326;2022-12-18T01:14:21;93.65;;;39.20;;
44989;SDS011;30723;51.206;3.326;2022-12-18T01:16:47;94.18;;;40.63;;
44989;SDS011;30723;51.206;3.326;2022-12-18T01:19:12;90.70;;;39.92;;
44989;SDS011;30723;51.206;3.326;2022-12-18T01:21:38;93.65;;;40.63;;
44989;SDS011;30723;51.206;3.326;2022-12-18T01:24:04;94.82;;;40.47;;
44989;SDS011;30723;51.206;3.326;2022-12-18T01:26:30;93.43;;;41.28;;
44989;SDS011;30723;51.206;3.326;2022-12-18T01:28:56;80.45;;;37.80;;
44989;SDS011;30723;51.206;3.326;2022-12-18T01:31:23;85.53;;;39.75;;
44989;SDS011;30723;51.206;3.326;2022-12-18T01:33:51;88.18;;;38.47;;
44989;SDS011;30723;51.206;3.326;2022-12-18T01:36:21;89.15;;;39.65;;
44989;SDS011;30723;51.206;3.326;2022-12-18T01:38:51;95.40;;;39.53;;
44989;SDS011;30723;51.206;3.326;2022-12-18T01:41:20;96.00;;;42.03;;
44989;SDS011;30723;51.206;3.326;2022-12-18T01:47:29;89.13;;;41.97;;
44989;SDS011;30723;51.206;3.326;2022-12-18T01:50:03;85.20;;;38.55;;
44989;SDS011;30723;51.206;3.326;2022-12-18T01:52:47;87.68;;;39.53;;
44989;SDS011;30723;51.206;3.326;2022-12-18T01:55:20;92.40;;;39.92;;
44989;SDS011;30723;51.206;3.326;2022-12-18T01:57:49;95.53;;;40.05;;
44989;SDS011;30723;51.206;3.326;2022-12-18T02:00:19;79.95;;;37.63;;
44989;SDS011;30723;51.206;3.326;2022-12-18T02:02:47;80.47;;;37.53;;
44989;SDS011;30723;51.206;3.326;2022-12-18T02:05:23;85.47;;;38.03;;
44989;SDS011;30723;51.206;3.326;2022-12-18T02:08:20;80.88;;;36.08;;
44989;SDS011;30723;51.206;3.326;2022-12-18T02:16:24;77.80;;;36.15;;
44989;SDS011;30723;51.206;3.326;2022-12-18T02:22:07;74.20;;;35.25;;
44989;SDS011;30723;51.206;3.326;2022-12-18T02:25:00;73.85;;;34.67;;
44989;SDS011;30723;51.206;3.326;2022-12-18T02:27:59;74.65;;;35.00;;
44989;SDS011;30723;51.206;3.326;2022-12-18T02:30:27;74.47;;;34.58;;
44989;SDS011;30723;51.206;3.326;2022-12-18T02:32:56;74.75;;;33.85;;
44989;SDS011;30723;51.206;3.326;2022-12-18T02:35:24;76.93;;;34.70;;
44989;SDS011;30723;51.206;3.326;2022-12-18T02:37:54;78.35;;;33.55;;
44989;SDS011;30723;51.206;3.326;2022-12-18T02:40:22;77.18;;;34.20;;
44989;SDS011;30723;51.206;3.326;2022-12-18T02:42:50;81.70;;;35.17;;
44989;SDS011;30723;51.206;3.326;2022-12-18T02:45:16;77.10;;;35.15;;
44989;SDS011;30723;51.206;3.326;2022-12-18T02:47:43;78.90;;;34.30;;
44989;SDS011;30723;51.206;3.326;2022-12-18T02:53:10;68.10;;;33.28;;
44989;SDS011;30723;51.206;3.326;2022-12-18T02:56:09;72.55;;;32.30;;
44989;SDS011;30723;51.206;3.326;2022-12-18T02:58:52;73.07;;;31.73;;
44989;SDS011;30723;51.206;3.326;2022-12-18T03:01:44;74.22;;;31.67;;
44989;SDS011;30723;51.206;3.326;2022-12-18T03:06:56;73.25;;;32.53;;
44989;SDS011;30723;51.206;3.326;2022-12-18T03:09:29;64.22;;;32.42;;
44989;SDS011;30723;51.206;3.326;2022-12-18T03:12:10;70.78;;;31.90;;
44989;SDS011;30723;51.206;3.326;2022-12-18T03:14:53;76.22;;;33.80;;
44989;SDS011;30723;51.206;3.326;2022-12-18T03:17:35;73.43;;;33.40;;
44989;SDS011;30723;51.206;3.326;2022-12-18T03:20:08;77.50;;;33.22;;
44989;SDS011;30723;51.206;3.326;2022-12-18T03:22:38;70.57;;;31.88;;
44989;SDS011;30723;51.206;3.326;2022-12-18T03:25:05;68.78;;;32.72;;
44989;SDS011;30723;51.206;3.326;2022-12-18T03:27:33;72.22;;;32.42;;
44989;SDS011;30723;51.206;3.326;2022-12-18T03:30:05;77.13;;;34.53;;
44989;SDS011;30723;51.206;3.326;2022-12-18T03:32:42;73.72;;;35.00;;
44989;SDS011;30723;51.206;3.326;2022-12-18T03:35:14;71.93;;;35.40;;
44989;SDS011;30723;51.206;3.326;2022-12-18T03:37:46;87.75;;;38.45;;
44989;SDS011;30723;51.206;3.326;2022-12-18T03:40:12;78.35;;;37.85;;
44989;SDS011;30723;51.206;3.326;2022-12-18T03:42:51;84.28;;;37.92;;
44989;SDS011;30723;51.206;3.326;2022-12-18T03:45:26;87.90;;;40.25;;
44989;SDS011;30723;51.206;3.326;2022-12-18T03:48:01;83.55;;;38.55;;
